Time;durP1;ratioP1;P1;durP2;ratioP2;P2;SDS_P1;SDS_P2;PMS_P1;PMS_P2;Temp;Humidity;BMP_temperature;BMP_pressure;BME280_temperature;BME280_humidity;BME280_pressure;Samples;Min_cycle;Max_cycle;Signal;HPM_P1;HPM_P2
2022/07/29 00:00:28;;;;;;;15.03;13.30;;;15.40;99.90;;;;;;4130025;28;20216;-71
2022/07/29 00:02:28;;;;;;;15.70;14.10;;;15.50;99.90;;;;;;4129910;28;20194;-71
2022/07/29 00:04:29;;;;;;;13.70;11.90;;;15.50;99.90;;;;;;4129041;28;20202;-71
2022/07/29 00:06:30;;;;;;;12.10;10.80;;;15.50;99.90;;;;;;4129614;28;20230;-70
2022/07/29 00:08:30;;;;;;;12.63;11.33;;;15.50;99.90;;;;;;4128573;28;20188;-71
2022/07/29 00:10:31;;;;;;;13.70;12.17;;;15.60;99.90;;;;;;4129848;28;20204;-71
2022/07/29 00:12:31;;;;;;;15.23;13.80;;;15.50;99.90;;;;;;4129645;28;20228;-71
2022/07/29 00:14:32;;;;;;;19.13;17.33;;;15.60;99.90;;;;;;4129314;28;20203;-71
2022/07/29 00:16:32;;;;;;;10.93;9.83;;;15.50;99.90;;;;;;4129581;28;20186;-71
2022/07/29 00:18:33;;;;;;;13.63;12.23;;;15.50;99.90;;;;;;4129712;28;20182;-71
2022/07/29 00:20:33;;;;;;;13.17;11.87;;;15.40;99.90;;;;;;4129702;28;20182;-71
2022/07/29 00:22:37;;;;;;;16.10;14.60;;;15.40;99.90;;;;;;4129801;28;20194;-71
2022/07/29 00:24:38;;;;;;;17.73;16.13;;;15.40;99.90;;;;;;4129219;28;20282;-71
2022/07/29 00:26:38;;;;;;;16.03;14.60;;;15.40;99.90;;;;;;4129724;28;20210;-71
2022/07/29 00:28:39;;;;;;;22.43;20.63;;;15.40;99.90;;;;;;4130010;28;20189;-71
2022/07/29 00:30:42;;;;;;;14.00;12.70;;;15.40;99.90;;;;;;4132710;28;20272;-71
2022/07/29 00:32:43;;;;;;;40.40;20.40;;;15.40;99.90;;;;;;4132491;28;20668;-71
2022/07/29 00:37:02;;;;;;;15.10;13.70;;;15.30;99.90;;;;;;4132762;28;20610;-71
2022/07/29 00:39:03;;;;;;;14.53;11.53;;;15.30;99.90;;;;;;4132640;28;20182;-71
2022/07/29 00:41:04;;;;;;;27.60;17.10;;;15.20;99.90;;;;;;4132562;28;20251;-71
2022/07/29 00:43:04;;;;;;;13.37;10.70;;;15.30;99.90;;;;;;4132489;28;20228;-71
2022/07/29 00:45:05;;;;;;;20.53;18.57;;;15.30;99.90;;;;;;4131731;28;20194;-71
2022/07/29 00:47:07;;;;;;;20.53;18.63;;;15.30;99.90;;;;;;4132257;28;20249;-71
2022/07/29 00:49:08;;;;;;;20.97;19.03;;;15.40;99.90;;;;;;4132397;28;20177;-72
2022/07/29 00:51:10;;;;;;;14.27;12.27;;;15.40;99.90;;;;;;4132299;28;20736;-71
2022/07/29 00:53:12;;;;;;;28.57;25.83;;;15.30;99.90;;;;;;4132447;28;20170;-71
2022/07/29 00:55:14;;;;;;;17.73;16.17;;;15.40;99.90;;;;;;4131859;28;20170;-71
2022/07/29 00:57:16;;;;;;;20.57;18.60;;;15.30;99.90;;;;;;4132254;28;20205;-71
2022/07/29 00:59:16;;;;;;;14.27;12.77;;;15.30;99.90;;;;;;4132301;28;20553;-72
2022/07/29 01:01:17;;;;;;;17.60;15.13;;;15.30;99.90;;;;;;4132353;28;20181;-71
2022/07/29 01:03:17;;;;;;;20.10;18.27;;;15.30;99.90;;;;;;4132232;28;20194;-71
2022/07/29 01:05:20;;;;;;;19.37;17.67;;;15.30;99.90;;;;;;4131809;28;20261;-71
2022/07/29 01:07:20;;;;;;;19.20;17.20;;;15.20;99.90;;;;;;4132123;28;20278;-71
2022/07/29 01:09:22;;;;;;;13.87;12.50;;;15.20;99.90;;;;;;4132097;28;20182;-71
2022/07/29 01:11:23;;;;;;;33.63;30.80;;;15.20;99.90;;;;;;4132153;28;20278;-70
2022/07/29 01:13:25;;;;;;;12.53;11.10;;;15.10;99.90;;;;;;4131579;28;20175;-71
2022/07/29 01:15:25;;;;;;;109.97;39.13;;;15.20;99.90;;;;;;4130881;28;20233;-71
2022/07/29 01:17:33;;;;;;;13.23;11.93;;;15.20;99.90;;;;;;4132448;28;20265;-71
2022/07/29 01:19:48;;;;;;;13.57;12.27;;;15.20;99.90;;;;;;4131737;28;20221;-71
2022/07/29 01:21:57;;;;;;;21.17;19.10;;;15.20;99.90;;;;;;4131964;28;20206;-72
2022/07/29 01:24:25;;;;;;;17.07;15.57;;;15.10;99.90;;;;;;4131363;28;20201;-71
2022/07/29 01:26:28;;;;;;;11.80;10.23;;;15.00;99.90;;;;;;4131809;28;20260;-71
2022/07/29 01:28:38;;;;;;;11.70;10.50;;;14.80;99.90;;;;;;4131965;28;20177;-71
2022/07/29 01:30:41;;;;;;;14.00;10.00;;;14.80;99.90;;;;;;4131536;28;20178;-71
2022/07/29 01:32:44;;;;;;;12.67;11.37;;;14.80;99.90;;;;;;4132612;28;20248;-71
2022/07/29 01:34:52;;;;;;;12.87;11.47;;;14.90;99.90;;;;;;4145885;28;20228;-72
2022/07/29 01:37:08;;;;;;;15.23;13.63;;;15.00;99.90;;;;;;4147863;28;20683;-72
2022/07/29 01:39:18;;;;;;;14.83;13.23;;;15.10;99.90;;;;;;4146708;28;20248;-72
2022/07/29 01:41:20;;;;;;;16.20;14.60;;;15.20;99.90;;;;;;4146736;28;20166;-71
2022/07/29 01:43:28;;;;;;;12.90;10.20;;;15.20;99.90;;;;;;4147457;28;20194;-71
2022/07/29 01:45:46;;;;;;;13.93;11.57;;;15.20;99.90;;;;;;4148128;28;20173;-73
2022/07/29 01:47:58;;;;;;;17.20;15.50;;;15.20;99.90;;;;;;4147728;28;20206;-71
2022/07/29 01:50:01;;;;;;;16.53;14.93;;;15.30;99.90;;;;;;4147650;28;20600;-71
2022/07/29 01:52:10;;;;;;;71.27;27.20;;;15.30;99.90;;;;;;4146437;28;20193;-71
2022/07/29 01:54:34;;;;;;;16.67;14.97;;;15.30;99.90;;;;;;4147183;28;20276;-71
2022/07/29 01:56:38;;;;;;;16.20;14.50;;;15.20;99.90;;;;;;4147512;28;20177;-71
2022/07/29 01:58:41;;;;;;;14.90;13.57;;;15.20;99.90;;;;;;4147900;28;20186;-71
2022/07/29 02:00:43;;;;;;;39.97;29.30;;;15.10;99.90;;;;;;4147774;28;20188;-71
2022/07/29 02:02:46;;;;;;;13.20;11.43;;;15.10;99.90;;;;;;4147466;28;20265;-71
2022/07/29 02:04:49;;;;;;;19.07;17.47;;;15.00;99.90;;;;;;4146797;28;20219;-71
2022/07/29 02:06:52;;;;;;;19.03;15.50;;;14.90;99.90;;;;;;4144648;28;20205;-71
2022/07/29 02:08:55;;;;;;;20.20;17.63;;;14.90;99.90;;;;;;4128477;28;20192;-71
2022/07/29 02:10:57;;;;;;;75.90;21.93;;;14.80;99.90;;;;;;4130854;28;20178;-71
2022/07/29 02:12:59;;;;;;;12.20;10.17;;;14.70;99.90;;;;;;4131045;28;20198;-71
2022/07/29 02:15:02;;;;;;;13.83;11.70;;;14.60;99.90;;;;;;4130578;28;20206;-71
2022/07/29 02:17:03;;;;;;;17.50;15.67;;;14.60;99.90;;;;;;4130728;28;20272;-71
2022/07/29 02:19:05;;;;;;;13.77;12.27;;;14.50;99.90;;;;;;4130881;28;20609;-71
2022/07/29 02:21:06;;;;;;;13.73;12.23;;;14.40;99.90;;;;;;4131361;28;20653;-71
2022/07/29 02:23:10;;;;;;;11.90;10.67;;;14.40;99.90;;;;;;4130954;28;20187;-71
2022/07/29 02:25:12;;;;;;;12.60;11.30;;;14.40;99.90;;;;;;4130673;28;20229;-71
2022/07/29 02:27:14;;;;;;;12.53;9.70;;;14.30;99.90;;;;;;4131145;28;20260;-72
2022/07/29 02:29:16;;;;;;;12.27;9.33;;;14.30;99.90;;;;;;4130941;28;20196;-71
2022/07/29 02:31:21;;;;;;;12.93;10.63;;;14.20;99.90;;;;;;4131021;28;20177;-71
2022/07/29 02:33:25;;;;;;;11.60;10.20;;;14.20;99.90;;;;;;4129422;28;20163;-71
2022/07/29 02:35:26;;;;;;;12.07;10.97;;;14.20;99.90;;;;;;4130559;28;20186;-72
2022/07/29 02:37:27;;;;;;;13.07;10.93;;;14.10;99.90;;;;;;4130811;28;20223;-71
2022/07/29 02:39:29;;;;;;;11.53;9.03;;;14.00;99.90;;;;;;4131033;28;20217;-71
2022/07/29 02:41:41;;;;;;;10.43;9.30;;;14.00;99.90;;;;;;4130874;28;20225;-71
2022/07/29 02:43:44;;;;;;;10.53;9.23;;;14.00;99.90;;;;;;4128555;28;20202;-71
2022/07/29 02:45:47;;;;;;;11.83;9.40;;;13.90;99.90;;;;;;4130707;28;20182;-72
2022/07/29 02:47:49;;;;;;;11.97;9.80;;;14.00;99.90;;;;;;4130618;28;20280;-70
2022/07/29 02:50:02;;;;;;;10.73;9.07;;;13.90;99.90;;;;;;4130660;28;20309;-71
2022/07/29 02:52:18;;;;;;;10.47;9.10;;;13.90;99.90;;;;;;4129750;28;20257;-72
2022/07/29 02:54:25;;;;;;;10.07;9.07;;;13.80;99.90;;;;;;4130110;28;20213;-71
2022/07/29 02:56:34;;;;;;;12.30;9.47;;;13.80;99.90;;;;;;4130661;28;20161;-72
2022/07/29 02:58:40;;;;;;;10.77;9.67;;;13.80;99.90;;;;;;4131369;28;20554;-71
2022/07/29 03:00:44;;;;;;;14.27;11.53;;;13.80;99.90;;;;;;4131222;28;20188;-71
2022/07/29 03:02:50;;;;;;;12.47;10.67;;;13.70;99.90;;;;;;4131722;28;20764;-73
2022/07/29 03:04:52;;;;;;;11.13;9.80;;;13.70;99.90;;;;;;4130964;28;20261;-71
2022/07/29 03:06:53;;;;;;;12.97;10.33;;;13.70;99.90;;;;;;4131562;28;20289;-71
2022/07/29 03:08:55;;;;;;;12.53;10.13;;;13.70;99.90;;;;;;4129716;28;20232;-73
2022/07/29 03:10:55;;;;;;;9.73;8.80;;;13.70;99.90;;;;;;4130029;28;20248;-71
2022/07/29 03:12:57;;;;;;;11.23;10.13;;;13.70;99.90;;;;;;4131509;28;20228;-71
2022/07/29 03:15:00;;;;;;;11.77;9.47;;;13.60;99.90;;;;;;4131229;28;20606;-70
2022/07/29 03:17:02;;;;;;;11.10;9.87;;;13.50;99.90;;;;;;4131378;28;20217;-71
2022/07/29 03:19:04;;;;;;;10.13;9.03;;;13.50;99.90;;;;;;4131769;28;20178;-71
2022/07/29 03:21:05;;;;;;;10.90;9.77;;;13.50;99.90;;;;;;4131624;28;20186;-71
2022/07/29 03:23:06;;;;;;;12.57;9.70;;;13.50;99.90;;;;;;4131370;28;20774;-71
2022/07/29 03:25:15;;;;;;;9.80;8.83;;;13.40;99.90;;;;;;4131075;28;20204;-70
2022/07/29 03:27:15;;;;;;;12.17;8.93;;;13.40;99.90;;;;;;4131442;28;20206;-71
2022/07/29 03:29:16;;;;;;;11.93;10.27;;;13.40;99.90;;;;;;4131049;28;20232;-71
2022/07/29 03:31:16;;;;;;;11.40;9.40;;;13.40;99.90;;;;;;4130274;28;20178;-70
2022/07/29 03:33:17;;;;;;;19.47;11.47;;;13.30;99.90;;;;;;4129960;28;20265;-71
2022/07/29 03:35:21;;;;;;;16.53;12.33;;;13.30;99.90;;;;;;4130194;28;20186;-71
2022/07/29 03:37:21;;;;;;;16.27;11.80;;;13.30;99.90;;;;;;4130471;28;20190;-71
2022/07/29 03:39:27;;;;;;;13.40;10.30;;;13.40;99.90;;;;;;4143716;28;20181;-71
2022/07/29 03:41:30;;;;;;;12.70;10.67;;;13.40;99.90;;;;;;4147455;28;20206;-71
2022/07/29 03:43:33;;;;;;;14.33;10.63;;;13.30;99.90;;;;;;4146628;28;20715;-71
2022/07/29 03:45:34;;;;;;;12.60;9.87;;;13.30;99.90;;;;;;4147398;28;20181;-71
2022/07/29 03:47:38;;;;;;;14.87;10.23;;;13.30;99.90;;;;;;4147183;28;20214;-71
2022/07/29 03:49:40;;;;;;;12.10;10.50;;;13.20;99.90;;;;;;4147345;28;20236;-71
2022/07/29 03:51:40;;;;;;;14.07;10.60;;;13.30;99.90;;;;;;4147489;28;20201;-71
2022/07/29 03:53:41;;;;;;;37.00;13.90;;;13.30;99.90;;;;;;4146431;28;20205;-71
2022/07/29 03:55:46;;;;;;;33.37;16.07;;;13.30;99.90;;;;;;4147074;28;20189;-71
2022/07/29 03:57:49;;;;;;;19.23;13.73;;;13.30;99.90;;;;;;4147264;28;20170;-71
2022/07/29 03:59:51;;;;;;;13.57;11.63;;;13.40;99.90;;;;;;4147209;28;20193;-71
2022/07/29 04:01:53;;;;;;;14.57;12.70;;;13.40;99.90;;;;;;4147299;28;20192;-71
2022/07/29 04:03:55;;;;;;;13.43;10.37;;;13.40;99.90;;;;;;4146971;28;20784;-71
2022/07/29 04:06:00;;;;;;;14.07;10.73;;;13.50;99.90;;;;;;4150247;28;20771;-71
2022/07/29 04:08:01;;;;;;;12.13;10.27;;;13.50;99.90;;;;;;4150221;28;20669;-72
2022/07/29 04:10:01;;;;;;;14.20;10.10;;;13.50;99.90;;;;;;4150168;28;20216;-70
2022/07/29 04:12:02;;;;;;;12.97;9.63;;;13.50;99.90;;;;;;4150100;28;20559;-71
2022/07/29 04:14:03;;;;;;;14.30;10.00;;;13.50;99.90;;;;;;4149456;28;20210;-71
2022/07/29 04:16:03;;;;;;;10.50;9.40;;;13.50;99.90;;;;;;4149947;28;20178;-72
2022/07/29 04:18:05;;;;;;;11.10;9.17;;;13.50;99.90;;;;;;4150233;28;20702;-71
2022/07/29 04:20:06;;;;;;;10.27;9.23;;;13.60;99.90;;;;;;4150273;28;20189;-71
2022/07/29 04:22:07;;;;;;;11.53;9.63;;;13.70;99.90;;;;;;4150146;28;20620;-72
2022/07/29 04:24:07;;;;;;;11.07;9.43;;;13.70;99.90;;;;;;4121547;28;20218;-71
2022/07/29 04:26:10;;;;;;;9.80;8.53;;;13.80;99.90;;;;;;4128616;28;20198;-71
2022/07/29 04:28:11;;;;;;;10.57;9.47;;;13.80;99.90;;;;;;4133778;28;20210;-71
2022/07/29 04:30:12;;;;;;;10.70;8.67;;;13.90;99.90;;;;;;4133990;28;20197;-72
2022/07/29 04:32:12;;;;;;;10.33;9.03;;;13.90;99.90;;;;;;4134044;28;20217;-72
2022/07/29 04:34:13;;;;;;;12.00;9.07;;;13.90;99.90;;;;;;4133309;28;20202;-71
2022/07/29 04:36:13;;;;;;;11.97;10.87;;;14.00;99.90;;;;;;4133380;28;20665;-71
2022/07/29 04:38:14;;;;;;;11.63;9.20;;;14.20;99.90;;;;;;4133744;28;20565;-70
2022/07/29 04:40:14;;;;;;;8.43;7.27;;;14.20;99.90;;;;;;4133497;28;20748;-71
2022/07/29 04:42:15;;;;;;;8.40;7.60;;;14.30;99.90;;;;;;4133445;28;20186;-71
2022/07/29 04:44:16;;;;;;;11.40;7.90;;;14.30;99.90;;;;;;4133022;28;20202;-70
2022/07/29 04:46:16;;;;;;;10.07;8.63;;;14.40;99.90;;;;;;4133576;28;20534;-70
2022/07/29 04:48:17;;;;;;;11.00;9.17;;;14.50;99.90;;;;;;4133467;28;20226;-71
2022/07/29 04:50:17;;;;;;;10.00;9.10;;;14.60;99.90;;;;;;4133331;28;20253;-71
2022/07/29 04:52:18;;;;;;;9.37;8.40;;;14.70;99.90;;;;;;4133188;28;20237;-71
2022/07/29 04:54:18;;;;;;;9.53;8.00;;;14.70;99.90;;;;;;4132484;28;20206;-71
2022/07/29 04:56:19;;;;;;;10.83;9.77;;;14.80;99.90;;;;;;4132502;28;20544;-70
2022/07/29 04:58:20;;;;;;;10.40;8.30;;;14.90;99.90;;;;;;4131876;28;20186;-71
2022/07/29 05:00:20;;;;;;;7.40;6.70;;;15.00;99.90;;;;;;4132090;28;20711;-71
2022/07/29 05:02:21;;;;;;;7.00;5.87;;;15.00;99.90;;;;;;4131794;28;20190;-70
2022/07/29 05:04:22;;;;;;;7.90;7.17;;;15.00;99.90;;;;;;4131151;28;20204;-71
2022/07/29 05:06:23;;;;;;;8.03;7.23;;;15.10;99.90;;;;;;4131401;28;20182;-71
2022/07/29 05:08:24;;;;;;;8.63;7.27;;;15.20;99.90;;;;;;4131638;28;20182;-71
2022/07/29 05:10:24;;;;;;;8.93;8.03;;;15.30;99.90;;;;;;4131530;28;20265;-71
2022/07/29 05:12:25;;;;;;;12.77;11.37;;;15.40;99.90;;;;;;4131607;28;20181;-71
2022/07/29 05:14:26;;;;;;;26.63;20.60;;;15.50;99.90;;;;;;4130878;28;21099;-71
2022/07/29 05:16:27;;;;;;;8.50;7.80;;;15.50;99.90;;;;;;4131287;28;20193;-72
2022/07/29 05:18:28;;;;;;;14.33;13.10;;;15.60;99.90;;;;;;4131714;28;20612;-71
2022/07/29 05:20:30;;;;;;;7.30;6.70;;;15.60;99.90;;;;;;4131505;28;20202;-71
2022/07/29 05:22:30;;;;;;;9.27;8.47;;;15.60;99.90;;;;;;4131469;28;20201;-71
2022/07/29 05:24:31;;;;;;;12.43;11.53;;;15.70;99.90;;;;;;4130968;28;20704;-71
2022/07/29 05:26:31;;;;;;;13.27;10.37;;;15.80;99.90;;;;;;4131273;28;20208;-70
2022/07/29 05:28:35;;;;;;;10.43;9.43;;;15.90;99.90;;;;;;4131394;28;20193;-71
2022/07/29 05:30:35;;;;;;;9.47;8.67;;;16.00;99.90;;;;;;4131303;28;20179;-71
2022/07/29 05:32:36;;;;;;;15.03;13.97;;;15.90;99.90;;;;;;4131471;28;20189;-71
2022/07/29 05:34:36;;;;;;;16.80;15.60;;;16.00;99.90;;;;;;4130517;28;20210;-71
2022/07/29 05:36:37;;;;;;;17.10;15.80;;;16.00;99.90;;;;;;4129749;28;20196;-71
2022/07/29 05:38:38;;;;;;;13.57;12.47;;;16.00;99.90;;;;;;4131166;28;20193;-70
2022/07/29 05:40:38;;;;;;;22.50;20.70;;;16.00;99.90;;;;;;4129845;28;20189;-71
2022/07/29 05:42:39;;;;;;;9.90;9.00;;;16.00;99.90;;;;;;4131087;28;20210;-71
2022/07/29 05:44:39;;;;;;;15.40;14.20;;;16.20;99.90;;;;;;4130651;28;20217;-71
2022/07/29 05:46:40;;;;;;;17.00;15.70;;;16.20;99.90;;;;;;4130880;28;20298;-71
2022/07/29 05:48:41;;;;;;;10.07;9.07;;;16.20;99.90;;;;;;4133393;28;20563;-71
2022/07/29 05:50:41;;;;;;;17.33;16.13;;;16.30;99.90;;;;;;4130945;28;20182;-72
2022/07/29 05:52:42;;;;;;;12.13;11.13;;;16.40;99.90;;;;;;4130898;28;20189;-71
2022/07/29 05:54:43;;;;;;;8.80;7.30;;;16.40;99.90;;;;;;4130371;28;20765;-71
2022/07/29 05:56:43;;;;;;;9.17;8.40;;;16.50;99.90;;;;;;4131008;28;20248;-71
2022/07/29 05:58:44;;;;;;;9.77;8.97;;;16.50;99.90;;;;;;4130806;28;20599;-70
2022/07/29 06:00:44;;;;;;;10.77;9.87;;;16.60;99.90;;;;;;4130839;28;20255;-71
2022/07/29 06:02:45;;;;;;;13.77;12.63;;;16.70;99.90;;;;;;4130773;28;20186;-71
2022/07/29 06:04:45;;;;;;;13.43;12.43;;;16.80;99.90;;;;;;4130209;28;20296;-71
2022/07/29 06:06:46;;;;;;;10.67;9.53;;;16.80;99.90;;;;;;4130962;28;20210;-71
2022/07/29 06:08:47;;;;;;;19.80;18.50;;;16.80;99.90;;;;;;4129218;28;20187;-71
2022/07/29 06:10:47;;;;;;;14.63;13.37;;;16.80;99.90;;;;;;4130790;28;20181;-71
2022/07/29 06:12:48;;;;;;;11.13;10.10;;;16.80;99.90;;;;;;4130890;28;20178;-71
2022/07/29 06:14:48;;;;;;;10.03;9.13;;;16.80;99.90;;;;;;4130055;28;20206;-71
2022/07/29 06:16:49;;;;;;;11.63;10.50;;;16.90;99.90;;;;;;4130647;28;20188;-72
2022/07/29 06:18:49;;;;;;;15.63;14.23;;;16.90;99.90;;;;;;4130130;28;20964;-71
2022/07/29 06:20:50;;;;;;;37.13;20.77;;;17.10;99.90;;;;;;4130680;28;20190;-71
2022/07/29 06:22:51;;;;;;;17.97;16.70;;;17.10;99.90;;;;;;4135025;28;20194;-72
2022/07/29 06:24:51;;;;;;;16.83;15.70;;;17.10;99.90;;;;;;4146307;28;20645;-71
2022/07/29 06:26:52;;;;;;;26.90;20.93;;;17.10;99.90;;;;;;4146027;28;20213;-71
2022/07/29 06:28:53;;;;;;;14.03;13.03;;;17.10;99.90;;;;;;4146760;28;20216;-71
2022/07/29 06:30:53;;;;;;;12.97;12.03;;;17.20;99.90;;;;;;4146640;28;20215;-72
2022/07/29 06:32:55;;;;;;;17.23;16.03;;;17.20;99.90;;;;;;4146528;28;20827;-71
2022/07/29 06:34:55;;;;;;;24.10;22.57;;;17.10;99.90;;;;;;4145847;28;20304;-72
2022/07/29 06:36:56;;;;;;;19.70;17.70;;;17.10;99.90;;;;;;4146641;28;20178;-71
2022/07/29 06:38:56;;;;;;;10.23;9.33;;;17.10;99.90;;;;;;4146458;28;20181;-71
2022/07/29 06:41:00;;;;;;;88.37;34.63;;;17.10;99.90;;;;;;4146410;28;20554;-71
2022/07/29 06:43:01;;;;;;;17.60;16.40;;;17.10;99.90;;;;;;4146597;28;20186;-72
2022/07/29 06:45:01;;;;;;;17.50;16.23;;;17.00;99.90;;;;;;4145929;28;20622;-71
2022/07/29 06:47:02;;;;;;;9.87;9.10;;;17.00;99.90;;;;;;4146237;28;20209;-71
2022/07/29 06:49:03;;;;;;;17.47;16.27;;;17.10;99.90;;;;;;4146725;28;20177;-72
2022/07/29 06:51:04;;;;;;;14.50;13.47;;;17.10;99.90;;;;;;4146433;28;20235;-71
2022/07/29 06:53:05;;;;;;;26.30;24.40;;;17.10;99.90;;;;;;4146305;28;20224;-71
2022/07/29 06:55:07;;;;;;;198.73;93.40;;;17.00;99.90;;;;;;4145904;28;20573;-71
2022/07/29 06:57:07;;;;;;;15.23;14.03;;;17.10;99.90;;;;;;4146323;28;20268;-71
2022/07/29 06:59:10;;;;;;;24.87;23.03;;;17.30;99.90;;;;;;4146312;28;20192;-71
2022/07/29 07:01:10;;;;;;;36.70;33.97;;;17.30;99.90;;;;;;4139993;28;20665;-71
2022/07/29 07:03:11;;;;;;;24.80;23.00;;;17.30;99.90;;;;;;4128470;28;20244;-72
2022/07/29 07:05:11;;;;;;;50.70;43.57;;;17.50;99.90;;;;;;4129012;28;20255;-71
2022/07/29 07:07:12;;;;;;;20.70;19.33;;;17.60;99.90;;;;;;4129944;28;20284;-72
2022/07/29 07:09:12;;;;;;;20.23;18.87;;;17.70;99.90;;;;;;4130056;28;20205;-72
2022/07/29 07:11:13;;;;;;;17.97;16.77;;;17.80;99.90;;;;;;4130025;28;20181;-72
2022/07/29 07:13:14;;;;;;;210.33;56.63;;;17.90;99.90;;;;;;4130929;28;20181;-72
2022/07/29 07:15:15;;;;;;;34.43;32.30;;;18.00;99.90;;;;;;4137493;28;20202;-72
2022/07/29 07:17:15;;;;;;;46.13;29.13;;;18.00;99.90;;;;;;4133999;28;20665;-72
2022/07/29 07:19:16;;;;;;;265.80;69.07;;;18.10;99.90;;;;;;4130131;28;20186;-72
2022/07/29 07:21:16;;;;;;;20.83;19.27;;;18.20;99.90;;;;;;4130121;28;20190;-72
2022/07/29 07:23:17;;;;;;;76.67;27.73;;;18.30;99.90;;;;;;4129953;28;20190;-71
2022/07/29 07:25:17;;;;;;;28.37;26.70;;;18.50;99.90;;;;;;4129643;28;20632;-72
2022/07/29 07:27:18;;;;;;;49.10;43.63;;;18.50;99.90;;;;;;4130122;28;20212;-71
2022/07/29 07:29:18;;;;;;;46.47;44.03;;;18.50;99.90;;;;;;4130114;28;20737;-72
2022/07/29 07:31:19;;;;;;;40.37;38.17;;;18.80;99.90;;;;;;4130005;28;20179;-72
2022/07/29 07:33:20;;;;;;;413.50;147.03;;;19.10;99.90;;;;;;4129701;28;20178;-72
2022/07/29 07:35:21;;;;;;;112.90;97.60;;;19.40;99.90;;;;;;4129597;28;20544;-71
2022/07/29 07:37:21;;;;;;;133.13;71.00;;;19.70;99.90;;;;;;4130027;28;20182;-72
2022/07/29 07:39:22;;;;;;;337.53;139.03;;;19.80;99.90;;;;;;4131621;28;20728;-71
2022/07/29 07:41:23;;;;;;;194.33;184.27;;;20.00;99.90;;;;;;4133231;28;20186;-71
2022/07/29 07:43:23;;;;;;;293.27;91.10;;;20.50;99.40;;;;;;4132718;28;20182;-72
2022/07/29 07:45:24;;;;;;;140.37;133.33;;;20.80;97.30;;;;;;4133697;28;20244;-72
2022/07/29 07:47:24;;;;;;;26.60;24.83;;;21.10;96.30;;;;;;4146796;28;20614;-72
2022/07/29 07:49:25;;;;;;;186.93;62.57;;;21.10;92.40;;;;;;4149203;28;20177;-72
2022/07/29 07:51:25;;;;;;;198.37;90.80;;;21.20;90.80;;;;;;4149103;28;20177;-72
2022/07/29 07:53:26;;;;;;;66.77;18.83;;;21.10;93.60;;;;;;4148424;28;20590;-72
2022/07/29 07:55:27;;;;;;;81.10;77.10;;;21.20;76.10;;;;;;4149170;28;20653;-72
2022/07/29 07:57:27;;;;;;;737.53;193.33;;;21.20;88.00;;;;;;4148921;28;20686;-72
2022/07/29 07:59:28;;;;;;;75.63;23.10;;;21.20;71.00;;;;;;4149016;28;20715;-72
2022/07/29 08:01:29;;;;;;;7.93;7.30;;;21.20;69.60;;;;;;4148939;28;20205;-72
2022/07/29 08:03:29;;;;;;;5.60;5.10;;;21.30;72.60;;;;;;4148278;28;20193;-72
2022/07/29 08:05:30;;;;;;;10.17;9.17;;;21.90;70.00;;;;;;4148996;28;20676;-68
2022/07/29 08:07:31;;;;;;;23.73;16.80;;;22.00;64.50;;;;;;4148804;28;20317;-67
2022/07/29 08:09:32;;;;;;;5.30;4.93;;;22.00;70.10;;;;;;4148994;28;20233;-73
2022/07/29 08:11:33;;;;;;;54.03;31.77;;;22.40;60.10;;;;;;4148976;28;20169;-73
2022/07/29 08:13:33;;;;;;;79.23;34.87;;;22.50;67.90;;;;;;4148049;28;20721;-73
2022/07/29 08:15:34;;;;;;;105.93;20.40;;;22.70;70.60;;;;;;4129840;28;20204;-73
2022/07/29 08:17:35;;;;;;;16.07;14.50;;;22.80;65.40;;;;;;4131084;28;20185;-74
2022/07/29 08:19:37;;;;;;;374.37;61.83;;;23.10;63.30;;;;;;4132761;28;20206;-73
2022/07/29 08:21:38;;;;;;;21.27;14.63;;;22.90;58.50;;;;;;4132717;28;20184;-73
2022/07/29 08:23:39;;;;;;;12.80;9.63;;;22.60;56.00;;;;;;4132156;28;20277;-73
2022/07/29 08:25:39;;;;;;;7.63;4.30;;;22.20;56.30;;;;;;4132720;28;20191;-73
2022/07/29 08:27:40;;;;;;;3.40;2.80;;;22.30;55.80;;;;;;4132485;28;20208;-73
2022/07/29 08:29:40;;;;;;;85.10;40.67;;;22.50;54.10;;;;;;4132482;28;20186;-73
2022/07/29 08:31:41;;;;;;;59.00;28.50;;;22.50;52.10;;;;;;4132449;28;20181;-72
2022/07/29 08:33:42;;;;;;;40.07;33.83;;;22.50;54.80;;;;;;4130595;28;20198;-72
2022/07/29 08:35:42;;;;;;;44.87;25.47;;;22.30;53.40;;;;;;4132528;28;20182;-73
2022/07/29 08:37:43;;;;;;;7.07;6.37;;;22.20;52.60;;;;;;4132279;28;20209;-74
2022/07/29 08:39:43;;;;;;;10.37;9.53;;;22.10;53.20;;;;;;4132415;28;20724;-72
2022/07/29 08:41:44;;;;;;;4.23;3.47;;;22.30;51.90;;;;;;4132312;28;20186;-71
2022/07/29 08:43:45;;;;;;;17.23;8.87;;;22.40;55.50;;;;;;4131675;28;20206;-72
2022/07/29 08:45:49;;;;;;;14.93;9.23;;;22.60;54.60;;;;;;4132182;28;20175;-72
2022/07/29 08:47:50;;;;;;;5.30;4.47;;;22.90;53.60;;;;;;4132210;28;20935;-72
2022/07/29 08:49:51;;;;;;;69.47;36.43;;;23.00;52.10;;;;;;4131615;28;20179;-72
2022/07/29 08:51:53;;;;;;;49.83;31.73;;;23.30;51.00;;;;;;4132355;28;20687;-72
2022/07/29 08:53:55;;;;;;;3.47;3.27;;;23.20;50.00;;;;;;4131375;28;20194;-72
2022/07/29 08:55:56;;;;;;;95.60;24.83;;;23.10;51.40;;;;;;4132167;28;20192;-72
2022/07/29 08:57:58;;;;;;;13.87;13.07;;;23.20;51.20;;;;;;4132089;28;20177;-73
2022/07/29 09:00:04;;;;;;;55.73;29.20;;;23.40;52.20;;;;;;4131984;28;20178;-73
2022/07/29 09:02:07;;;;;;;21.73;19.93;;;23.50;50.80;;;;;;4132080;28;20625;-73
2022/07/29 09:04:11;;;;;;;15.23;9.87;;;23.30;50.00;;;;;;4131335;28;20190;-71
2022/07/29 09:06:14;;;;;;;24.20;12.00;;;23.10;49.60;;;;;;4131940;28;20190;-73
2022/07/29 09:08:16;;;;;;;13.00;11.77;;;23.20;52.50;;;;;;4131546;28;20230;-73
2022/07/29 09:10:16;;;;;;;17.60;6.73;;;23.80;50.20;;;;;;4131989;28;20272;-72
2022/07/29 09:12:17;;;;;;;6.63;3.93;;;23.70;49.70;;;;;;4131851;28;20633;-73
2022/07/29 09:14:17;;;;;;;96.23;42.33;;;23.60;49.40;;;;;;4131391;28;20194;-73
2022/07/29 09:16:18;;;;;;;17.50;12.53;;;23.60;48.70;;;;;;4131899;28;20183;-73
2022/07/29 09:18:35;;;;;;;5.33;4.93;;;23.70;49.00;;;;;;4131861;28;20174;-73
2022/07/29 09:22:56;;;;;;;7.13;4.57;;;23.70;45.90;;;;;;4131874;28;20895;-73
2022/07/29 09:24:57;;;;;;;16.87;12.50;;;23.80;47.90;;;;;;4131164;28;20206;-73
2022/07/29 09:26:57;;;;;;;6.80;6.20;;;23.50;47.00;;;;;;4130352;28;20342;-73
2022/07/29 09:28:58;;;;;;;15.53;12.07;;;23.40;46.80;;;;;;4131671;28;20174;-73
2022/07/29 09:30:59;;;;;;;3.43;3.13;;;23.50;47.10;;;;;;4131751;28;20641;-73
2022/07/29 09:33:02;;;;;;;148.07;80.57;;;23.50;48.00;;;;;;4131717;28;20182;-73
2022/07/29 09:35:21;;;;;;;5.10;3.70;;;23.20;49.90;;;;;;4130858;28;20659;-73
2022/07/29 09:37:28;;;;;;;16.80;12.73;;;23.10;48.00;;;;;;4131468;28;20178;-73
2022/07/29 09:39:35;;;;;;;4.77;4.20;;;23.10;48.10;;;;;;4131515;28;20673;-73
2022/07/29 09:41:47;;;;;;;5.87;4.63;;;23.20;48.40;;;;;;4131439;28;20162;-73
2022/07/29 09:44:06;;;;;;;17.47;10.30;;;23.40;50.40;;;;;;4130884;28;20711;-71
2022/07/29 09:46:11;;;;;;;6.87;6.00;;;23.40;47.80;;;;;;4131497;28;20210;-73
2022/07/29 09:48:23;;;;;;;10.80;9.70;;;23.20;50.00;;;;;;4132369;28;20271;-72
2022/07/29 09:50:38;;;;;;;8.97;8.00;;;23.60;48.10;;;;;;4113824;28;20171;-73
2022/07/29 09:52:46;;;;;;;9.33;7.97;;;23.70;46.60;;;;;;4115383;28;20206;-73
2022/07/29 09:54:47;;;;;;;16.33;15.03;;;23.90;46.20;;;;;;4114571;28;20211;-72
2022/07/29 09:56:47;;;;;;;3.70;3.40;;;23.90;45.70;;;;;;4115196;28;20182;-72
2022/07/29 09:59:05;;;;;;;4.33;3.70;;;24.00;45.80;;;;;;4115210;28;20832;-73
2022/07/29 10:01:06;;;;;;;12.57;11.80;;;24.20;47.50;;;;;;4114552;28;20181;-72
2022/07/29 10:03:06;;;;;;;10.27;9.37;;;24.60;48.00;;;;;;4114338;28;20183;-74
2022/07/29 10:05:21;;;;;;;4.90;3.17;;;24.70;44.30;;;;;;4114087;28;20692;-73
2022/07/29 10:07:22;;;;;;;4.23;3.53;;;25.20;41.90;;;;;;4114644;28;20229;-73
2022/07/29 10:09:22;;;;;;;3.67;3.20;;;24.90;41.90;;;;;;4114887;28;20179;-72
2022/07/29 10:11:23;;;;;;;3.47;3.17;;;24.80;42.70;;;;;;4114745;28;20182;-72
2022/07/29 10:13:25;;;;;;;3.37;3.07;;;25.00;42.00;;;;;;4114341;28;20281;-72
2022/07/29 10:15:29;;;;;;;6.67;4.80;;;24.90;41.70;;;;;;4114771;28;20183;-72
2022/07/29 10:17:29;;;;;;;4.00;3.17;;;24.90;41.50;;;;;;4114590;28;20182;-72
2022/07/29 10:19:31;;;;;;;3.53;3.17;;;24.90;43.70;;;;;;4114650;28;20183;-72
2022/07/29 10:21:33;;;;;;;17.10;15.50;;;24.90;41.50;;;;;;4114704;28;20685;-72
2022/07/29 10:23:42;;;;;;;210.20;156.67;;;24.60;42.90;;;;;;4192374;28;20574;-72
2022/07/29 10:25:44;;;;;;;5.47;5.03;;;24.90;42.50;;;;;;4193145;28;20241;-73
2022/07/29 10:27:47;;;;;;;5.93;3.80;;;25.20;42.10;;;;;;4192954;28;20180;-73